createdAt,value
2018-04-17T00:00:10.577Z,8.40
2018-04-17T00:02:38.148Z,8.40
2018-04-17T00:05:05.711Z,8.30
2018-04-17T00:07:34.062Z,8.40
2018-04-17T00:10:01.636Z,8.30
2018-04-17T00:12:29.205Z,8.30
2018-04-17T00:14:56.771Z,8.30
2018-04-17T00:17:24.343Z,8.30
2018-04-17T00:19:52.666Z,8.20
2018-04-17T00:22:20.240Z,8.20
2018-04-17T00:24:47.797Z,8.10
2018-04-17T00:27:15.418Z,8.10
2018-04-17T00:29:43.763Z,8.00
2018-04-17T00:32:11.352Z,8.00
2018-04-17T00:34:38.923Z,8.00
2018-04-17T00:37:06.510Z,8.00
2018-04-17T00:39:34.113Z,8.00
2018-04-17T00:42:01.717Z,7.90
2018-04-17T00:44:29.291Z,7.90
2018-04-17T00:46:56.872Z,8.00
2018-04-17T00:49:24.450Z,8.00
2018-04-17T00:51:52.004Z,8.00
2018-04-17T00:54:19.576Z,8.00
2018-04-17T00:56:47.207Z,8.10
2018-04-17T00:59:15.540Z,8.10
2018-04-17T01:01:43.894Z,8.10
2018-04-17T01:04:11.478Z,8.10
2018-04-17T01:06:39.796Z,8.00
2018-04-17T01:09:08.135Z,8.00
2018-04-17T01:11:36.460Z,8.00
2018-04-17T01:14:04.044Z,8.00
2018-04-17T01:16:31.623Z,7.90
2018-04-17T01:18:59.946Z,7.90
2018-04-17T01:21:27.513Z,7.90
2018-04-17T01:23:55.104Z,7.90
2018-04-17T01:26:22.694Z,7.90
2018-04-17T01:28:51.053Z,7.90
2018-04-17T01:31:18.611Z,7.90
2018-04-17T01:33:46.200Z,7.90
2018-04-17T01:36:14.555Z,7.80
2018-04-17T01:38:42.129Z,7.80
2018-04-17T01:41:10.469Z,7.80
2018-04-17T01:43:38.029Z,6.50
2018-04-17T01:46:05.640Z,7.70
2018-04-17T01:48:33.954Z,7.70
2018-04-17T01:51:01.566Z,7.70
2018-04-17T01:53:29.114Z,7.70
2018-04-17T01:55:56.764Z,7.70
2018-04-17T01:58:24.315Z,7.70
2018-04-17T02:00:51.912Z,7.70
2018-04-17T02:03:19.467Z,7.70
2018-04-17T02:05:47.036Z,7.70
2018-04-17T02:08:15.363Z,7.70
2018-04-17T02:10:42.956Z,7.70
2018-04-17T02:13:10.624Z,7.70
2018-04-17T02:15:38.208Z,7.60
2018-04-17T02:18:06.524Z,7.60
2018-04-17T02:20:34.129Z,7.50
2018-04-17T02:23:01.776Z,7.50
2018-04-17T02:25:29.368Z,7.50
2018-04-17T02:27:57.752Z,7.50
2018-04-17T02:30:26.079Z,7.40
2018-04-17T02:32:53.689Z,7.40
2018-04-17T02:35:22.040Z,7.40
2018-04-17T02:37:49.612Z,7.40
2018-04-17T02:40:17.185Z,7.40
2018-04-17T02:42:45.541Z,7.40
2018-04-17T02:45:13.125Z,7.30
2018-04-17T02:47:41.475Z,7.40
2018-04-17T02:50:09.051Z,7.40
2018-04-17T02:52:36.761Z,7.40
2018-04-17T02:55:04.327Z,7.40
2018-04-17T02:57:31.941Z,7.40
2018-04-17T02:59:59.483Z,7.30
2018-04-17T03:02:27.051Z,7.30
2018-04-17T03:04:54.635Z,7.30
2018-04-17T03:07:22.982Z,7.30
2018-04-17T03:09:50.569Z,7.30
2018-04-17T03:12:18.910Z,7.30
2018-04-17T03:14:46.500Z,7.30
2018-04-17T03:17:14.071Z,7.20
2018-04-17T03:19:42.519Z,7.20
2018-04-17T03:22:10.083Z,7.20
2018-04-17T03:24:37.660Z,7.20
2018-04-17T03:27:05.223Z,7.10
2018-04-17T03:29:32.838Z,7.10
2018-04-17T03:32:00.419Z,7.10
2018-04-17T03:34:27.983Z,7.10
2018-04-17T03:36:55.555Z,7.10
2018-04-17T03:39:23.128Z,7.10
2018-04-17T03:41:50.692Z,7.10
2018-04-17T03:44:18.261Z,7.10
2018-04-17T03:46:46.626Z,7.00
2018-04-17T03:49:14.257Z,7.00
2018-04-17T03:51:41.848Z,7.00
2018-04-17T03:54:09.419Z,7.00
2018-04-17T03:56:37.765Z,7.00
2018-04-17T03:59:05.348Z,6.90
2018-04-17T04:01:33.002Z,7.00
2018-04-17T04:04:00.559Z,6.90
2018-04-17T04:06:28.137Z,6.90
2018-04-17T04:08:55.692Z,6.90
2018-04-17T04:11:24.053Z,6.90
2018-04-17T04:13:51.711Z,6.90
2018-04-17T04:16:31.072Z,6.90
2018-04-17T04:19:10.476Z,6.90
2018-04-17T04:21:50.954Z,6.90
2018-04-17T04:24:30.183Z,6.90
2018-04-17T04:26:57.771Z,6.90
2018-04-17T04:29:25.369Z,6.90
2018-04-17T04:31:53.668Z,6.80
2018-04-17T04:34:21.247Z,6.80
2018-04-17T04:36:48.816Z,6.80
2018-04-17T04:39:16.403Z,6.80
2018-04-17T04:41:44.012Z,6.80
2018-04-17T04:44:11.596Z,6.80
2018-04-17T04:46:39.162Z,6.80
2018-04-17T04:49:06.751Z,6.90
2018-04-17T04:51:34.307Z,6.90
2018-04-17T04:54:02.011Z,6.90
2018-04-17T04:56:29.605Z,7.00
2018-04-17T04:58:57.174Z,7.00
2018-04-17T05:01:24.728Z,7.10
2018-04-17T05:03:52.303Z,7.20
2018-04-17T05:06:19.856Z,7.20
2018-04-17T05:08:47.435Z,7.20
2018-04-17T05:11:15.760Z,7.30
2018-04-17T05:13:43.339Z,7.30
2018-04-17T05:16:10.924Z,7.40
2018-04-17T05:18:38.504Z,7.50
2018-04-17T05:21:07.019Z,7.70
2018-04-17T05:23:34.603Z,7.60
2018-04-17T05:26:02.168Z,7.80
2018-04-17T05:28:29.788Z,7.90
2018-04-17T05:30:57.357Z,8.00
2018-04-17T05:33:24.964Z,8.20
2018-04-17T05:35:52.542Z,8.30
2018-04-17T05:38:20.175Z,8.40
2018-04-17T05:40:47.730Z,8.60
2018-04-17T05:43:15.284Z,8.60
2018-04-17T05:45:42.859Z,8.70
2018-04-17T05:48:10.426Z,8.90
2018-04-17T05:50:38.019Z,9.00
2018-04-17T05:53:06.369Z,11.40
2018-04-17T05:55:34.792Z,11.40
2018-04-17T05:58:03.127Z,14.00
2018-04-17T06:00:30.739Z,14.00
2018-04-17T06:02:58.293Z,15.00
2018-04-17T06:05:26.675Z,16.50
2018-04-17T06:07:54.248Z,16.40
2018-04-17T06:10:21.856Z,17.00
2018-04-17T06:12:49.461Z,18.00
2018-04-17T06:15:17.078Z,18.70
2018-04-17T06:17:44.862Z,19.20
2018-04-17T06:20:12.453Z,19.30
2018-04-17T06:22:40.016Z,19.10
2018-04-17T06:25:07.623Z,19.30
2018-04-17T06:27:35.201Z,19.80
2018-04-17T06:30:02.777Z,20.60
2018-04-17T06:32:30.363Z,20.80
2018-04-17T06:34:57.943Z,21.40
2018-04-17T06:37:25.587Z,21.40
2018-04-17T06:39:53.947Z,21.90
2018-04-17T06:42:22.299Z,21.80
2018-04-17T06:44:49.851Z,21.80
2018-04-17T06:47:17.489Z,21.90
2018-04-17T06:49:45.019Z,21.90
2018-04-17T06:52:12.619Z,22.10
2018-04-17T06:54:40.176Z,21.80
2018-04-17T06:57:07.759Z,22.10
2018-04-17T06:59:35.412Z,23.20
2018-04-17T07:02:03.006Z,23.20
2018-04-17T07:04:30.556Z,23.50
2018-04-17T07:06:58.198Z,24.50
2018-04-17T07:09:25.745Z,24.90
2018-04-17T07:11:53.324Z,26.00
2018-04-17T07:14:20.908Z,26.30
2018-04-17T07:16:48.475Z,26.40
2018-04-17T07:19:16.816Z,26.40
2018-04-17T07:21:44.388Z,26.30
2018-04-17T07:24:11.992Z,25.50
2018-04-17T07:26:40.340Z,26.00
2018-04-17T07:29:07.927Z,25.90
2018-04-17T07:31:36.265Z,26.70
2018-04-17T07:34:03.846Z,26.70
2018-04-17T07:36:31.403Z,26.70
2018-04-17T07:38:59.004Z,27.40
2018-04-17T07:41:26.560Z,27.90
2018-04-17T07:43:54.145Z,28.60
2018-04-17T07:46:21.705Z,28.80
2018-04-17T07:48:50.342Z,28.10
2018-04-17T07:51:17.897Z,28.50
2018-04-17T07:53:45.547Z,29.20
2018-04-17T07:56:13.218Z,29.90
2018-04-17T07:58:40.807Z,30.40
2018-04-17T08:01:09.178Z,31.30
2018-04-17T08:03:37.512Z,31.80
2018-04-17T08:06:05.193Z,31.80
2018-04-17T08:08:32.858Z,31.90
2018-04-17T08:11:00.453Z,32.70
2018-04-17T08:13:28.784Z,32.40
2018-04-17T08:15:56.393Z,32.40
2018-04-17T08:18:24.705Z,33.40
2018-04-17T08:20:52.284Z,33.40
2018-04-17T08:23:19.858Z,33.40
2018-04-17T08:25:47.420Z,33.80
2018-04-17T08:28:14.979Z,34.00
2018-04-17T08:30:42.568Z,34.60
2018-04-17T08:33:10.912Z,33.30
2018-04-17T08:35:38.501Z,33.30
2018-04-17T08:38:06.858Z,32.40
2018-04-17T08:40:34.427Z,32.30
2018-04-17T08:43:01.988Z,32.20
2018-04-17T08:45:29.603Z,32.60
2018-04-17T08:47:57.186Z,31.90
2018-04-17T08:50:24.860Z,32.00
2018-04-17T08:52:52.428Z,32.10
2018-04-17T08:55:20.024Z,31.40
2018-04-17T08:57:48.367Z,31.90
2018-04-17T09:00:16.028Z,31.90
2018-04-17T09:02:43.613Z,31.80
2018-04-17T09:05:13.278Z,31.80
2018-04-17T09:07:40.877Z,31.80
2018-04-17T09:10:08.517Z,31.50
2018-04-17T09:12:36.111Z,31.70
2018-04-17T09:15:04.431Z,31.90
2018-04-17T09:17:32.011Z,31.90
2018-04-17T09:19:59.575Z,32.20
2018-04-17T09:22:27.284Z,32.30
2018-04-17T09:24:55.624Z,31.20
2018-04-17T09:27:23.243Z,31.10
2018-04-17T09:29:50.816Z,31.20
2018-04-17T09:32:18.448Z,31.70
2018-04-17T09:34:46.779Z,32.80
2018-04-17T09:37:14.369Z,32.80
2018-04-17T09:39:41.946Z,32.20
2018-04-17T09:42:10.319Z,31.50
2018-04-17T09:44:37.877Z,31.50
2018-04-17T09:47:06.209Z,30.60
2018-04-17T09:49:33.791Z,30.60
2018-04-17T09:52:01.376Z,30.30
2018-04-17T09:54:28.945Z,30.10
2018-04-17T09:56:57.297Z,29.30
2018-04-17T09:59:24.960Z,29.30
2018-04-17T10:01:52.516Z,29.60
2018-04-17T10:04:20.086Z,29.10
2018-04-17T10:06:47.689Z,28.10
2018-04-17T10:09:16.026Z,28.30
2018-04-17T10:11:43.580Z,28.30
2018-04-17T10:14:11.183Z,28.30
2018-04-17T10:16:39.584Z,27.10
2018-04-17T10:19:07.176Z,27.10
2018-04-17T10:21:34.747Z,27.10
2018-04-17T10:24:02.324Z,27.00
2018-04-17T10:26:29.884Z,26.60
2018-04-17T10:28:57.472Z,26.90
2018-04-17T10:31:25.064Z,27.60
2018-04-17T10:33:52.624Z,27.40
2018-04-17T10:36:20.210Z,27.20
2018-04-17T10:38:47.772Z,26.70
2018-04-17T10:41:15.366Z,26.90
2018-04-17T10:43:43.704Z,27.40
2018-04-17T10:46:11.284Z,27.30
2018-04-17T10:48:38.879Z,27.40
2018-04-17T10:51:07.295Z,28.30
2018-04-17T10:53:34.880Z,28.30
2018-04-17T10:56:02.523Z,28.30
2018-04-17T10:58:30.182Z,28.50
2018-04-17T11:00:57.741Z,27.90
2018-04-17T11:03:25.367Z,27.60
2018-04-17T11:05:52.937Z,27.60
2018-04-17T11:08:20.569Z,27.40
2018-04-17T11:10:48.124Z,27.10
2018-04-17T11:13:15.735Z,26.80
2018-04-17T11:15:44.082Z,26.50
2018-04-17T11:18:12.446Z,27.00
2018-04-17T11:20:40.000Z,27.00
2018-04-17T11:23:07.586Z,26.90
2018-04-17T11:25:35.912Z,27.60
2018-04-17T11:28:03.516Z,27.60
2018-04-17T11:30:31.078Z,26.80
2018-04-17T11:32:58.672Z,26.20
2018-04-17T11:35:26.332Z,26.00
2018-04-17T11:37:54.011Z,26.20
2018-04-17T11:40:21.598Z,26.30
2018-04-17T11:42:49.171Z,26.30
2018-04-17T11:45:16.736Z,25.70
2018-04-17T11:47:44.318Z,25.30
2018-04-17T11:50:12.647Z,25.00
2018-04-17T11:52:40.224Z,25.00
2018-04-17T11:55:08.360Z,25.30
2018-04-17T11:57:35.994Z,25.40
2018-04-17T12:00:03.618Z,25.10
2018-04-17T12:02:31.195Z,25.00
2018-04-17T12:04:58.782Z,25.10
2018-04-17T12:07:27.128Z,24.50
2018-04-17T12:09:54.708Z,24.50
2018-04-17T12:12:23.058Z,23.80
2018-04-17T12:14:50.646Z,23.80
2018-04-17T12:17:19.000Z,23.70
2018-04-17T12:19:46.606Z,23.70
2018-04-17T12:22:14.986Z,24.50
2018-04-17T12:24:42.597Z,24.40
2018-04-17T12:27:10.201Z,24.70
2018-04-17T12:29:38.533Z,23.80
2018-04-17T12:32:06.106Z,23.80
2018-04-17T12:34:33.739Z,23.90
2018-04-17T12:37:01.348Z,24.00
2018-04-17T12:39:28.923Z,23.90
2018-04-17T12:41:57.267Z,24.00
2018-04-17T12:44:24.846Z,24.00
2018-04-17T12:46:52.429Z,24.10
2018-04-17T12:49:20.771Z,24.30
2018-04-17T12:51:48.336Z,24.20
2018-04-17T12:54:15.914Z,24.40
2018-04-17T12:56:44.262Z,24.60
2018-04-17T12:59:11.841Z,24.60
2018-04-17T13:01:39.422Z,24.30
2018-04-17T13:04:07.797Z,24.00
2018-04-17T13:06:36.154Z,23.90
2018-04-17T13:09:03.730Z,23.90
2018-04-17T13:11:31.311Z,24.00
2018-04-17T13:13:59.654Z,23.90
2018-04-17T13:16:27.228Z,23.90
2018-04-17T13:18:54.849Z,24.00
2018-04-17T13:21:23.191Z,24.00
2018-04-17T13:23:51.505Z,24.00
2018-04-17T13:26:19.115Z,23.90
2018-04-17T13:28:46.677Z,24.00
2018-04-17T13:31:14.288Z,23.90
2018-04-17T13:33:41.890Z,24.20
2018-04-17T13:36:09.538Z,24.20
2018-04-17T13:38:37.110Z,24.00
2018-04-17T13:41:04.695Z,24.30
2018-04-17T13:43:33.040Z,24.10
2018-04-17T13:46:00.898Z,24.00
2018-04-17T13:48:28.516Z,23.90
2018-04-17T13:50:57.004Z,23.90
2018-04-17T13:53:24.574Z,23.90
2018-04-17T13:55:52.161Z,23.80
2018-04-17T13:58:19.805Z,24.00
2018-04-17T14:00:47.443Z,24.00
2018-04-17T14:03:15.754Z,24.00
2018-04-17T14:05:43.307Z,24.00
2018-04-17T14:08:10.925Z,24.20
2018-04-17T14:10:38.475Z,24.20
2018-04-17T14:13:06.056Z,24.10
2018-04-17T14:15:34.384Z,23.60
2018-04-17T14:18:01.961Z,23.60
2018-04-17T14:20:29.544Z,23.50
2018-04-17T14:22:57.141Z,23.40
2018-04-17T14:25:24.712Z,23.40
2018-04-17T14:27:53.066Z,23.40
2018-04-17T14:30:21.394Z,23.40
2018-04-17T14:32:49.038Z,23.40
2018-04-17T14:35:16.601Z,23.40
2018-04-17T14:37:44.202Z,23.30
2018-04-17T14:40:11.778Z,23.20
2018-04-17T14:42:39.484Z,23.00
2018-04-17T14:45:07.828Z,23.10
2018-04-17T14:47:36.253Z,23.10
2018-04-17T14:50:03.829Z,23.10
2018-04-17T14:52:31.444Z,23.20
2018-04-17T14:54:59.934Z,23.50
2018-04-17T14:57:27.529Z,23.50
2018-04-17T14:59:55.139Z,23.50
2018-04-17T15:02:23.489Z,23.70
2018-04-17T15:04:51.072Z,23.60
2018-04-17T15:07:19.417Z,23.70
2018-04-17T15:09:47.002Z,23.70
2018-04-17T15:12:14.587Z,23.80
2018-04-17T15:14:42.940Z,24.00
2018-04-17T15:17:10.512Z,24.10
2018-04-17T15:19:38.875Z,24.20
2018-04-17T15:22:06.445Z,24.20
2018-04-17T15:24:34.021Z,24.10
2018-04-17T15:27:02.344Z,24.10
2018-04-17T15:29:29.932Z,24.10
2018-04-17T15:31:57.511Z,24.20
2018-04-17T15:34:25.861Z,24.20
2018-04-17T15:36:53.394Z,24.10
2018-04-17T15:39:21.749Z,24.20
2018-04-17T15:41:49.309Z,24.20
2018-04-17T15:44:16.891Z,24.30
2018-04-17T15:46:44.480Z,24.20
2018-04-17T15:49:12.068Z,24.10
2018-04-17T15:51:39.648Z,24.00
2018-04-17T15:54:07.974Z,23.50
2018-04-17T15:56:35.601Z,23.50
2018-04-17T15:59:03.170Z,23.30
2018-04-17T16:07:37.582Z,23.00
2018-04-17T16:10:06.061Z,22.90
2018-04-17T16:12:33.647Z,22.90
2018-04-17T16:15:02.025Z,22.90
2018-04-17T16:17:30.368Z,22.80
2018-04-17T16:19:57.933Z,22.80
2018-04-17T16:22:25.573Z,22.70
2018-04-17T16:24:53.160Z,22.80
2018-04-17T16:27:20.758Z,22.80
2018-04-17T16:29:49.121Z,23.00
2018-04-17T16:32:16.696Z,22.90
2018-04-17T16:34:45.083Z,22.70
2018-04-17T16:37:13.429Z,22.70
2018-04-17T16:39:41.019Z,22.60
2018-04-17T16:42:09.351Z,22.40
2018-04-17T16:44:36.955Z,22.30
2018-04-17T16:47:05.316Z,22.20
2018-04-17T16:49:32.889Z,22.20
2018-04-17T16:52:01.229Z,22.10
2018-04-17T16:54:28.811Z,22.10
2018-04-17T16:56:56.369Z,21.90
2018-04-17T16:59:23.967Z,21.90
2018-04-17T17:01:52.344Z,21.80
2018-04-17T17:04:20.056Z,21.80
2018-04-17T17:06:47.625Z,21.80
2018-04-17T17:09:15.247Z,21.70
2018-04-17T17:11:42.828Z,21.70
2018-04-17T17:14:10.411Z,21.70
2018-04-17T17:16:37.982Z,21.60
2018-04-17T17:19:05.607Z,21.50
2018-04-17T17:21:33.180Z,21.50
2018-04-17T17:24:00.757Z,21.50
2018-04-17T17:26:28.366Z,21.50
2018-04-17T17:28:56.729Z,21.50
2018-04-17T17:31:24.320Z,21.50
2018-04-17T17:33:51.906Z,21.50
2018-04-17T17:36:19.517Z,21.50
2018-04-17T17:38:47.869Z,21.30
2018-04-17T17:41:15.498Z,21.30
2018-04-17T17:43:43.099Z,21.20
2018-04-17T17:46:10.689Z,21.10
2018-04-17T17:48:39.065Z,20.90
2018-04-17T17:51:07.482Z,20.80
2018-04-17T17:53:35.054Z,20.80
2018-04-17T17:56:02.649Z,20.70
2018-04-17T17:58:30.214Z,20.50
2018-04-17T18:00:57.811Z,20.40
2018-04-17T18:03:25.408Z,20.30
2018-04-17T18:05:53.008Z,20.20
2018-04-17T18:08:21.369Z,19.90
2018-04-17T18:10:48.987Z,19.90
2018-04-17T18:13:16.559Z,19.80
2018-04-17T18:15:44.127Z,19.70
2018-04-17T18:18:11.857Z,19.60
2018-04-17T18:20:39.429Z,19.50
2018-04-17T18:23:07.019Z,19.40
2018-04-17T18:25:34.696Z,19.30
2018-04-17T18:28:02.323Z,19.20
2018-04-17T18:30:29.909Z,19.10
2018-04-17T18:32:57.513Z,18.90
2018-04-17T18:35:25.935Z,18.60
2018-04-17T18:37:53.955Z,18.60
2018-04-17T18:40:22.293Z,18.50
2018-04-17T18:42:49.899Z,18.50
2018-04-17T18:45:18.228Z,18.40
2018-04-17T18:47:45.881Z,18.40
2018-04-17T18:50:13.491Z,18.30
2018-04-17T18:52:41.107Z,18.20
2018-04-17T18:55:08.641Z,18.00
2018-04-17T18:57:36.247Z,18.00
2018-04-17T19:00:03.839Z,17.90
2018-04-17T19:02:31.421Z,17.80
2018-04-17T19:04:59.041Z,17.70
2018-04-17T19:07:26.652Z,17.60
2018-04-17T19:09:54.256Z,17.40
2018-04-17T19:12:21.815Z,17.30
2018-04-17T19:14:49.397Z,17.30
2018-04-17T19:17:16.967Z,17.20
2018-04-17T19:19:44.566Z,17.10
2018-04-17T19:22:12.137Z,17.00
2018-04-17T19:24:39.826Z,16.90
2018-04-17T19:27:07.432Z,16.90
2018-04-17T19:29:35.765Z,16.80
2018-04-17T19:32:03.407Z,16.70
2018-04-17T19:34:31.034Z,16.70
2018-04-17T19:36:59.407Z,16.40
2018-04-17T19:39:27.755Z,16.30
2018-04-17T19:41:55.376Z,16.30
2018-04-17T19:44:22.954Z,16.30
2018-04-17T19:46:50.553Z,16.10
2018-04-17T19:49:18.106Z,16.00
2018-04-17T19:51:45.705Z,15.90
2018-04-17T19:54:14.115Z,15.70
2018-04-17T19:56:41.729Z,15.70
2018-04-17T19:59:09.343Z,15.60
2018-04-17T20:01:36.945Z,15.60
2018-04-17T20:04:04.552Z,15.40
2018-04-17T20:06:32.137Z,15.30
2018-04-17T20:08:59.731Z,15.30
2018-04-17T20:11:27.320Z,15.20
2018-04-17T20:13:54.900Z,15.20
2018-04-17T20:16:23.256Z,15.00
2018-04-17T20:18:51.618Z,14.90
2018-04-17T20:21:19.205Z,14.90
2018-04-17T20:23:46.836Z,14.80
2018-04-17T20:26:14.416Z,14.80
2018-04-17T20:28:42.778Z,14.60
2018-04-17T20:31:10.395Z,14.60
2018-04-17T20:33:38.111Z,14.50
2018-04-17T20:36:06.476Z,14.40
2018-04-17T20:38:34.111Z,14.40
2018-04-17T20:41:01.754Z,14.30
2018-04-17T20:43:29.398Z,14.30
2018-04-17T20:45:57.023Z,14.30
2018-04-17T20:48:24.609Z,14.30
2018-04-17T20:50:52.973Z,14.20
2018-04-17T20:53:21.364Z,14.10
2018-04-17T20:55:49.726Z,14.00
2018-04-17T20:58:17.312Z,14.00
2018-04-17T21:00:45.760Z,14.10
2018-04-17T21:03:13.354Z,14.00
2018-04-17T21:05:41.727Z,14.10
2018-04-17T21:08:10.066Z,14.20
2018-04-17T21:10:37.828Z,14.10
2018-04-17T21:13:05.401Z,14.20
2018-04-17T21:15:32.994Z,14.20
2018-04-17T21:18:01.419Z,14.20
2018-04-17T21:20:29.017Z,14.20
2018-04-17T21:22:56.598Z,14.20
2018-04-17T21:25:24.930Z,14.20
2018-04-17T21:27:52.528Z,14.20
2018-04-17T21:30:20.889Z,14.20
2018-04-17T21:32:48.469Z,14.20
2018-04-17T21:35:16.793Z,14.20
2018-04-17T21:37:44.402Z,14.10
2018-04-17T21:40:11.972Z,14.10
2018-04-17T21:42:40.324Z,14.00
2018-04-17T21:45:07.905Z,13.90
2018-04-17T21:47:35.504Z,13.90
2018-04-17T21:50:03.116Z,13.90
2018-04-17T21:52:30.732Z,14.00
2018-04-17T21:54:58.303Z,14.00
2018-04-17T21:57:26.721Z,14.00
2018-04-17T21:59:54.293Z,14.00
2018-04-17T22:02:21.875Z,13.90
2018-04-17T22:04:50.200Z,13.90
2018-04-17T22:07:17.797Z,13.90
2018-04-17T22:09:46.134Z,13.90
2018-04-17T22:12:13.747Z,13.90
2018-04-17T22:14:42.100Z,13.90
2018-04-17T22:17:09.723Z,13.80
2018-04-17T22:19:37.294Z,13.90
2018-04-17T22:22:04.864Z,13.90
2018-04-17T22:24:32.432Z,13.90
2018-04-17T22:27:00.013Z,13.80
2018-04-17T22:29:27.636Z,13.80
2018-04-17T22:31:55.204Z,13.70
2018-04-17T22:34:22.784Z,13.70
2018-04-17T22:36:50.419Z,13.70
2018-04-17T22:39:18.028Z,13.60
2018-04-17T22:41:45.599Z,13.50
2018-04-17T22:44:13.976Z,13.50
2018-04-17T22:46:42.355Z,13.40
2018-04-17T22:49:11.655Z,13.40
2018-04-17T22:51:40.087Z,13.40
2018-04-17T22:54:07.987Z,13.40
2018-04-17T22:56:35.627Z,13.40
2018-04-17T22:59:03.246Z,13.40
2018-04-17T23:01:31.572Z,13.30
2018-04-17T23:03:59.193Z,13.30
2018-04-17T23:06:27.596Z,13.30
2018-04-17T23:08:55.194Z,13.30
2018-04-17T23:11:22.767Z,13.30
2018-04-17T23:13:50.456Z,13.30
2018-04-17T23:16:18.035Z,13.30
2018-04-17T23:18:45.687Z,13.30
2018-04-17T23:21:13.341Z,13.20
2018-04-17T23:23:40.959Z,13.20
2018-04-17T23:26:08.582Z,13.10
2018-04-17T23:28:36.132Z,13.10
2018-04-17T23:31:03.702Z,13.00
2018-04-17T23:33:31.272Z,13.00
2018-04-17T23:35:58.855Z,13.00
2018-04-17T23:38:26.435Z,13.00
2018-04-17T23:40:54.013Z,13.00
2018-04-17T23:43:22.341Z,12.90
2018-04-17T23:45:49.927Z,12.90
2018-04-17T23:48:17.516Z,12.90
2018-04-17T23:50:45.858Z,12.90
2018-04-17T23:53:13.706Z,12.80
2018-04-17T23:55:41.260Z,12.80
2018-04-17T23:58:09.607Z,12.70
